Time;durP1;ratioP1;P1;durP2;ratioP2;P2;SDS_P1;SDS_P2;PMS_P1;PMS_P2;Temp;Humidity;BMP_temperature;BMP_pressure;BME280_temperature;BME280_humidity;BME280_pressure;Samples;Min_cycle;Max_cycle;Signal;HPM_P1;HPM_P2
2023/06/12 00:01:17;;;;;;;5.47;4.83;;;;;;;;;;5094025;28;20208;-76
2023/06/12 00:03:44;;;;;;;5.97;5.43;;;;;;;;;;5093457;28;20199;-76
2023/06/12 00:06:11;;;;;;;6.13;5.07;;;;;;;;;;5093897;28;20208;-76
2023/06/12 00:08:41;;;;;;;7.40;5.60;;;;;;;;;;5113816;28;20211;-76
2023/06/12 00:11:09;;;;;;;5.37;4.87;;;;;;;;;;5099394;28;20283;-76
2023/06/12 00:13:36;;;;;;;5.63;4.83;;;;;;;;;;5101010;28;20207;-77
2023/06/12 00:16:03;;;;;;;6.57;5.23;;;;;;;;;;5113281;28;20629;-76
2023/06/12 00:18:31;;;;;;;6.83;5.37;;;;;;;;;;5113454;28;20261;-76
2023/06/12 00:20:58;;;;;;;5.83;5.27;;;;;;;;;;5113292;28;20210;-76
2023/06/12 00:23:24;;;;;;;7.27;5.53;;;;;;;;;;5113667;28;20202;-76
2023/06/12 00:25:51;;;;;;;5.70;5.30;;;;;;;;;;5113274;28;20769;-76
2023/06/12 00:28:18;;;;;;;5.30;4.77;;;;;;;;;;5105127;28;20218;-76
2023/06/12 00:30:45;;;;;;;6.47;5.60;;;;;;;;;;5093139;28;20254;-76
2023/06/12 00:33:11;;;;;;;7.27;5.33;;;;;;;;;;5092799;28;20215;-76
2023/06/12 00:35:39;;;;;;;6.47;5.83;;;;;;;;;;5108603;28;20202;-76
2023/06/12 00:38:07;;;;;;;8.17;5.63;;;;;;;;;;5113292;28;20280;-76
2023/06/12 00:40:34;;;;;;;9.27;5.67;;;;;;;;;;5099529;28;20290;-76
2023/06/12 00:43:00;;;;;;;8.93;5.60;;;;;;;;;;5103532;28;20238;-77
2023/06/12 00:45:27;;;;;;;5.93;5.00;;;;;;;;;;5109251;28;20210;-76
2023/06/12 00:47:57;;;;;;;9.43;5.83;;;;;;;;;;5112530;28;20740;-76
2023/06/12 00:50:26;;;;;;;5.77;5.27;;;;;;;;;;5096208;28;20203;-77
2023/06/12 00:52:54;;;;;;;6.90;6.03;;;;;;;;;;5103128;28;20719;-76
2023/06/12 00:55:22;;;;;;;6.90;5.90;;;;;;;;;;5108781;28;20195;-77
2023/06/12 00:57:49;;;;;;;7.70;5.73;;;;;;;;;;5092736;28;20584;-76
2023/06/12 01:00:17;;;;;;;7.37;5.60;;;;;;;;;;5105988;28;20202;-76
2023/06/12 01:02:46;;;;;;;8.63;5.57;;;;;;;;;;5103617;28;20202;-76
2023/06/12 01:05:19;;;;;;;6.27;5.60;;;;;;;;;;5093109;28;20673;-76
2023/06/12 01:07:51;;;;;;;6.33;5.17;;;;;;;;;;5092391;28;20338;-76
2023/06/12 01:10:24;;;;;;;6.30;5.37;;;;;;;;;;5099610;28;20203;-76
2023/06/12 01:12:52;;;;;;;5.60;5.10;;;;;;;;;;5112484;28;20208;-77
2023/06/12 01:15:19;;;;;;;6.47;5.67;;;;;;;;;;5104482;28;20209;-76
2023/06/12 01:17:45;;;;;;;5.83;5.30;;;;;;;;;;5106604;28;20256;-76
2023/06/12 01:20:13;;;;;;;6.73;6.17;;;;;;;;;;5104691;28;20287;-76
2023/06/12 01:22:44;;;;;;;5.50;4.97;;;;;;;;;;5107116;28;20205;-76
2023/06/12 01:25:42;;;;;;;6.17;5.30;;;;;;;;;;5103592;28;20200;-76
2023/06/12 01:28:25;;;;;;;7.23;5.90;;;;;;;;;;5093148;28;20205;-77
2023/06/12 01:31:06;;;;;;;8.17;5.10;;;;;;;;;;5096682;28;20202;-77
2023/06/12 01:33:38;;;;;;;6.03;5.50;;;;;;;;;;5102886;28;20212;-76
2023/06/12 01:36:08;;;;;;;6.33;4.63;;;;;;;;;;5098332;28;20201;-76
2023/06/12 01:38:35;;;;;;;7.47;5.30;;;;;;;;;;5106795;28;20716;-76
2023/06/12 01:41:04;;;;;;;6.67;4.73;;;;;;;;;;5106872;28;20286;-76
2023/06/12 01:43:31;;;;;;;6.67;5.97;;;;;;;;;;5091896;28;20276;-77
2023/06/12 01:45:57;;;;;;;6.57;5.87;;;;;;;;;;5105469;28;20252;-77
2023/06/12 01:48:24;;;;;;;6.73;4.87;;;;;;;;;;5091456;28;20230;-77
2023/06/12 01:50:52;;;;;;;9.17;5.60;;;;;;;;;;5111440;28;20280;-76
2023/06/12 01:53:19;;;;;;;6.30;5.73;;;;;;;;;;5112273;28;20210;-76
2023/06/12 01:55:49;;;;;;;7.70;5.20;;;;;;;;;;5097977;28;20257;-76
2023/06/12 01:58:16;;;;;;;7.27;5.70;;;;;;;;;;5111111;28;20308;-76
2023/06/12 02:00:42;;;;;;;11.07;5.73;;;;;;;;;;5104371;28;20200;-76
2023/06/12 02:03:10;;;;;;;8.33;5.60;;;;;;;;;;5105455;28;20203;-76
2023/06/12 02:05:36;;;;;;;7.37;5.50;;;;;;;;;;5111633;28;20715;-76
2023/06/12 02:08:05;;;;;;;6.00;5.50;;;;;;;;;;5097983;28;20201;-76
2023/06/12 02:10:31;;;;;;;6.97;6.30;;;;;;;;;;5103570;28;20583;-76
2023/06/12 02:12:58;;;;;;;6.03;5.27;;;;;;;;;;5104670;28;20267;-76
2023/06/12 02:15:25;;;;;;;7.93;5.70;;;;;;;;;;5091205;28;20206;-77
2023/06/12 02:17:52;;;;;;;6.47;5.87;;;;;;;;;;5106771;28;20206;-76
2023/06/12 02:20:18;;;;;;;9.90;5.93;;;;;;;;;;5102279;28;20709;-76
2023/06/12 02:22:45;;;;;;;5.33;4.90;;;;;;;;;;5093179;28;20256;-76
2023/06/12 02:25:13;;;;;;;10.60;5.87;;;;;;;;;;5102790;28;20629;-76
2023/06/12 02:27:40;;;;;;;9.00;5.80;;;;;;;;;;5104267;28;20764;-76
2023/06/12 02:30:08;;;;;;;8.40;6.07;;;;;;;;;;5100503;28;20217;-76
2023/06/12 02:32:35;;;;;;;6.70;5.57;;;;;;;;;;5107502;28;20247;-76
2023/06/12 02:35:02;;;;;;;6.50;5.90;;;;;;;;;;5101379;28;20290;-77
2023/06/12 02:37:30;;;;;;;5.87;5.37;;;;;;;;;;5087140;28;20196;-77
2023/06/12 02:39:56;;;;;;;7.23;6.53;;;;;;;;;;5101517;28;20274;-77
2023/06/12 02:42:24;;;;;;;6.83;5.40;;;;;;;;;;5107481;28;20293;-76
2023/06/12 02:44:51;;;;;;;5.90;5.37;;;;;;;;;;5102731;28;20653;-77
2023/06/12 02:47:18;;;;;;;6.70;5.80;;;;;;;;;;5090598;28;20201;-76
2023/06/12 02:49:45;;;;;;;6.90;5.10;;;;;;;;;;5090871;28;20199;-77
2023/06/12 02:52:12;;;;;;;6.50;5.83;;;;;;;;;;5090560;28;20285;-76
2023/06/12 02:54:39;;;;;;;6.33;5.73;;;;;;;;;;5090988;28;20367;-77
2023/06/12 02:57:06;;;;;;;6.33;5.73;;;;;;;;;;5104090;28;20677;-77
2023/06/12 02:59:34;;;;;;;6.17;5.67;;;;;;;;;;5101744;28;20226;-77
2023/06/12 03:02:01;;;;;;;6.00;5.50;;;;;;;;;;5106627;28;20203;-77
2023/06/12 03:04:28;;;;;;;6.70;5.90;;;;;;;;;;5102099;28;20271;-77
2023/06/12 03:06:55;;;;;;;8.43;6.20;;;;;;;;;;5096728;28;20198;-76
2023/06/12 03:09:22;;;;;;;6.50;5.50;;;;;;;;;;5099351;28;20201;-76
2023/06/12 03:11:52;;;;;;;6.67;6.07;;;;;;;;;;5108614;28;20199;-77
2023/06/12 03:14:21;;;;;;;7.57;5.87;;;;;;;;;;5098340;28;20243;-77
2023/06/12 03:16:51;;;;;;;6.07;5.57;;;;;;;;;;5097642;28;20207;-77
2023/06/12 03:19:18;;;;;;;5.87;5.33;;;;;;;;;;5096635;28;20740;-76
2023/06/12 03:21:45;;;;;;;7.07;6.20;;;;;;;;;;5101354;28;20601;-76
2023/06/12 03:24:13;;;;;;;5.83;5.40;;;;;;;;;;5093304;28;20201;-76
2023/06/12 03:26:41;;;;;;;6.93;5.90;;;;;;;;;;5114607;28;20287;-76
2023/06/12 03:29:08;;;;;;;6.63;6.10;;;;;;;;;;5111612;28;20614;-76
2023/06/12 03:31:35;;;;;;;6.97;5.80;;;;;;;;;;5103653;28;20198;-76
2023/06/12 03:34:03;;;;;;;6.10;5.60;;;;;;;;;;5100776;28;20212;-76
2023/06/12 03:36:32;;;;;;;6.77;5.60;;;;;;;;;;5114730;28;20621;-76
2023/06/12 03:39:02;;;;;;;6.13;5.53;;;;;;;;;;5114256;28;20798;-76
2023/06/12 03:41:30;;;;;;;8.20;5.60;;;;;;;;;;5103276;28;20211;-77
2023/06/12 03:43:57;;;;;;;5.70;5.20;;;;;;;;;;5111954;28;20201;-76
2023/06/12 03:46:24;;;;;;;6.13;5.63;;;;;;;;;;5103652;28;20200;-76
2023/06/12 03:48:51;;;;;;;7.73;6.00;;;;;;;;;;5113046;28;20602;-76
2023/06/12 03:51:19;;;;;;;13.50;6.30;;;;;;;;;;5101922;28;20733;-76
2023/06/12 03:53:46;;;;;;;6.87;5.63;;;;;;;;;;5099832;28;20223;-76
2023/06/12 03:56:13;;;;;;;7.57;5.70;;;;;;;;;;5101621;28;20197;-76
2023/06/12 03:58:39;;;;;;;6.43;5.83;;;;;;;;;;5099860;28;20201;-76
2023/06/12 04:01:06;;;;;;;5.80;5.30;;;;;;;;;;5101030;28;20685;-76
2023/06/12 04:03:34;;;;;;;9.20;6.13;;;;;;;;;;5098839;28;20200;-76
2023/06/12 04:06:01;;;;;;;6.43;5.27;;;;;;;;;;5093733;28;20294;-76
2023/06/12 04:08:29;;;;;;;7.90;5.63;;;;;;;;;;5107288;28;20246;-77
2023/06/12 04:10:55;;;;;;;6.33;5.83;;;;;;;;;;5105400;28;20203;-77
2023/06/12 04:13:22;;;;;;;6.77;6.10;;;;;;;;;;5099840;28;20199;-78
2023/06/12 04:15:50;;;;;;;7.30;6.10;;;;;;;;;;5101529;28;20682;-78
2023/06/12 04:18:17;;;;;;;6.80;6.07;;;;;;;;;;5112852;28;20202;-77
2023/06/12 04:20:44;;;;;;;7.00;5.73;;;;;;;;;;5101608;28;20224;-78
2023/06/12 04:23:11;;;;;;;6.80;5.43;;;;;;;;;;5106930;28;20207;-78
2023/06/12 04:25:42;;;;;;;10.80;5.27;;;;;;;;;;5106490;28;20769;-78
2023/06/12 04:28:13;;;;;;;8.03;5.37;;;;;;;;;;5105886;28;20261;-78
2023/06/12 04:30:41;;;;;;;5.37;4.87;;;;;;;;;;5094141;28;20199;-78
2023/06/12 04:33:09;;;;;;;6.27;4.97;;;;;;;;;;5105458;28;20211;-78
2023/06/12 04:35:37;;;;;;;8.03;5.00;;;;;;;;;;5108195;28;20204;-78
2023/06/12 04:38:05;;;;;;;6.10;5.50;;;;;;;;;;5104789;28;20220;-78
2023/06/12 04:40:36;;;;;;;5.90;5.40;;;;;;;;;;5106594;28;20277;-78
2023/06/12 04:43:06;;;;;;;6.47;5.87;;;;;;;;;;5102784;28;20196;-78
2023/06/12 04:45:34;;;;;;;6.70;5.93;;;;;;;;;;5099610;28;20233;-78
2023/06/12 04:48:02;;;;;;;6.13;5.70;;;;;;;;;;5113417;28;20266;-78
2023/06/12 04:50:30;;;;;;;6.53;5.73;;;;;;;;;;5099495;28;20746;-78
2023/06/12 04:52:57;;;;;;;5.60;5.20;;;;;;;;;;5101354;28;20706;-78
2023/06/12 04:55:28;;;;;;;5.97;5.30;;;;;;;;;;5106433;28;20270;-78
2023/06/12 04:57:55;;;;;;;6.07;5.57;;;;;;;;;;5092405;28;20631;-78
2023/06/12 05:00:25;;;;;;;6.13;5.57;;;;;;;;;;5111938;28;20306;-78
2023/06/12 05:02:52;;;;;;;5.70;5.23;;;;;;;;;;5113090;28;20199;-78
2023/06/12 05:05:19;;;;;;;5.90;5.40;;;;;;;;;;5099402;28;20210;-78
2023/06/12 05:07:47;;;;;;;8.67;5.67;;;;;;;;;;5099351;28;20200;-78
2023/06/12 05:10:14;;;;;;;7.37;6.73;;;;;;;;;;5092580;28;20208;-77
2023/06/12 05:12:41;;;;;;;5.57;5.17;;;;;;;;;;5092295;28;20751;-78
2023/06/12 05:15:08;;;;;;;5.70;5.13;;;;;;;;;;5105493;28;20211;-77
2023/06/12 05:17:37;;;;;;;6.97;5.60;;;;;;;;;;5106179;28;20200;-77
2023/06/12 05:20:08;;;;;;;7.83;5.50;;;;;;;;;;5105314;28;20319;-78
2023/06/12 05:22:35;;;;;;;6.03;5.43;;;;;;;;;;5105843;28;20583;-78
2023/06/12 05:25:03;;;;;;;7.73;5.60;;;;;;;;;;5092102;28;20208;-78
2023/06/12 05:27:30;;;;;;;5.70;5.23;;;;;;;;;;5105969;28;20203;-77
2023/06/12 05:29:57;;;;;;;10.23;6.10;;;;;;;;;;5100782;28;20195;-77
2023/06/12 05:32:24;;;;;;;7.07;5.33;;;;;;;;;;5097295;28;20204;-77
2023/06/12 05:34:52;;;;;;;10.77;7.13;;;;;;;;;;5100122;28;20979;-77
2023/06/12 05:37:18;;;;;;;6.93;4.87;;;;;;;;;;5098278;28;20204;-77
2023/06/12 05:39:45;;;;;;;6.80;6.17;;;;;;;;;;5103559;28;20220;-77
2023/06/12 05:42:12;;;;;;;5.80;4.90;;;;;;;;;;5104903;28;20203;-77
2023/06/12 05:44:39;;;;;;;5.27;4.77;;;;;;;;;;5100834;28;20645;-77
2023/06/12 05:47:07;;;;;;;7.87;4.60;;;;;;;;;;5095382;28;20222;-77
2023/06/12 05:49:34;;;;;;;6.53;4.50;;;;;;;;;;5092125;28;20752;-77
2023/06/12 05:52:03;;;;;;;6.67;4.70;;;;;;;;;;5094917;28;20199;-79
2023/06/12 05:54:30;;;;;;;6.43;4.63;;;;;;;;;;5101392;28;20766;-77
2023/06/12 05:56:57;;;;;;;6.53;4.73;;;;;;;;;;5108750;28;20633;-77
2023/06/12 05:59:24;;;;;;;4.77;4.33;;;;;;;;;;5101046;28;20212;-77
2023/06/12 06:01:51;;;;;;;6.40;4.27;;;;;;;;;;5096198;28;20199;-77
2023/06/12 06:04:17;;;;;;;5.57;4.40;;;;;;;;;;5099700;28;20823;-77
2023/06/12 06:06:44;;;;;;;6.53;4.93;;;;;;;;;;5104980;28;20211;-77
2023/06/12 06:09:13;;;;;;;7.30;5.00;;;;;;;;;;5091707;28;20208;-77
2023/06/12 06:11:40;;;;;;;5.90;4.70;;;;;;;;;;5104729;28;20192;-77
2023/06/12 06:14:07;;;;;;;6.57;4.47;;;;;;;;;;5091042;28;20706;-77
2023/06/12 06:16:33;;;;;;;8.07;4.27;;;;;;;;;;5097633;28;20199;-77
2023/06/12 06:19:00;;;;;;;5.20;4.03;;;;;;;;;;5111495;28;20203;-77
2023/06/12 06:21:27;;;;;;;9.60;5.00;;;;;;;;;;5092656;28;20224;-77
2023/06/12 06:23:54;;;;;;;4.93;4.43;;;;;;;;;;5103331;28;20748;-77
2023/06/12 06:26:22;;;;;;;6.10;4.00;;;;;;;;;;5092172;28;20563;-77
2023/06/12 06:28:50;;;;;;;5.37;4.17;;;;;;;;;;5090805;28;20674;-77
2023/06/12 06:31:19;;;;;;;5.20;4.53;;;;;;;;;;5104969;28;20203;-77
2023/06/12 06:33:46;;;;;;;5.63;4.53;;;;;;;;;;5104524;28;20558;-77
2023/06/12 06:36:13;;;;;;;5.70;5.10;;;;;;;;;;5110996;28;20661;-77
2023/06/12 06:38:40;;;;;;;5.50;4.37;;;;;;;;;;5110820;28;20677;-77
2023/06/12 06:41:06;;;;;;;5.83;4.77;;;;;;;;;;5090731;28;20227;-78
2023/06/12 06:43:35;;;;;;;4.67;4.27;;;;;;;;;;5091562;28;20193;-77
2023/06/12 06:46:01;;;;;;;4.93;4.43;;;;;;;;;;5111377;28;20252;-77
2023/06/12 06:48:28;;;;;;;5.20;4.70;;;;;;;;;;5097393;28;20228;-77
2023/06/12 06:50:55;;;;;;;6.13;5.50;;;;;;;;;;5103269;28;20199;-76
2023/06/12 06:53:22;;;;;;;5.20;4.43;;;;;;;;;;5092113;28;21179;-77
2023/06/12 06:55:48;;;;;;;5.37;4.63;;;;;;;;;;5102531;28;20650;-77
2023/06/12 06:58:15;;;;;;;5.27;4.37;;;;;;;;;;5092386;28;20238;-77
2023/06/12 07:00:43;;;;;;;7.63;3.90;;;;;;;;;;5114506;28;20658;-77
2023/06/12 07:03:10;;;;;;;4.50;3.77;;;;;;;;;;5100966;28;20764;-77
2023/06/12 07:05:37;;;;;;;7.47;4.67;;;;;;;;;;5115134;28;20207;-77
2023/06/12 07:08:04;;;;;;;6.67;4.60;;;;;;;;;;5101030;28;20253;-77
2023/06/12 07:10:30;;;;;;;5.33;4.13;;;;;;;;;;5106211;28;20726;-77
2023/06/12 07:13:00;;;;;;;6.00;4.57;;;;;;;;;;5108229;28;20207;-77
2023/06/12 07:15:27;;;;;;;6.40;3.90;;;;;;;;;;5094847;28;20200;-76
2023/06/12 07:17:55;;;;;;;4.90;4.17;;;;;;;;;;5108189;28;20252;-76
2023/06/12 07:20:21;;;;;;;8.43;4.50;;;;;;;;;;5104306;28;20245;-76
2023/06/12 07:22:48;;;;;;;5.20;4.73;;;;;;;;;;5101212;28;20203;-77
2023/06/12 07:25:15;;;;;;;4.23;3.80;;;;;;;;;;5104769;28;20204;-77
2023/06/12 07:27:42;;;;;;;4.93;4.50;;;;;;;;;;5111297;28;20206;-77
2023/06/12 07:30:09;;;;;;;7.93;4.53;;;;;;;;;;5104138;28;20226;-77
2023/06/12 07:32:36;;;;;;;10.13;4.80;;;;;;;;;;5108208;28;20641;-77
2023/06/12 07:35:07;;;;;;;5.20;4.70;;;;;;;;;;5105022;28;20620;-77
2023/06/12 07:37:35;;;;;;;9.33;5.27;;;;;;;;;;5100867;28;20195;-77
2023/06/12 07:40:04;;;;;;;10.73;4.87;;;;;;;;;;5102913;28;20220;-76
2023/06/12 07:42:31;;;;;;;5.20;4.70;;;;;;;;;;5107519;28;20196;-76
2023/06/12 07:44:58;;;;;;;6.70;4.87;;;;;;;;;;5094250;28;20200;-76
2023/06/12 07:47:25;;;;;;;6.10;4.90;;;;;;;;;;5099633;28;20633;-76
2023/06/12 07:49:51;;;;;;;6.07;4.30;;;;;;;;;;5101265;28;20597;-76
2023/06/12 07:52:20;;;;;;;10.27;7.57;;;;;;;;;;5113812;28;20254;-76
2023/06/12 07:54:47;;;;;;;6.43;4.30;;;;;;;;;;5100874;28;20580;-77
2023/06/12 07:57:14;;;;;;;7.20;5.70;;;;;;;;;;5093258;28;20200;-77
2023/06/12 07:59:41;;;;;;;8.77;6.17;;;;;;;;;;5107922;28;20203;-77
2023/06/12 08:02:09;;;;;;;5.73;5.23;;;;;;;;;;5106941;28;20208;-76
2023/06/12 08:04:40;;;;;;;5.90;5.40;;;;;;;;;;5107794;28;20211;-77
2023/06/12 08:07:10;;;;;;;8.80;4.60;;;;;;;;;;5113988;28;20253;-76
2023/06/12 08:09:39;;;;;;;6.47;4.77;;;;;;;;;;5111222;28;20302;-77
2023/06/12 08:12:11;;;;;;;10.40;5.40;;;;;;;;;;5093052;28;20250;-77
2023/06/12 08:14:38;;;;;;;7.30;4.80;;;;;;;;;;5107428;28;20200;-77
2023/06/12 08:17:05;;;;;;;7.13;5.23;;;;;;;;;;5102861;28;20202;-77
2023/06/12 08:19:34;;;;;;;7.53;5.07;;;;;;;;;;5113461;28;20227;-77
2023/06/12 08:22:01;;;;;;;5.67;4.23;;;;;;;;;;5103415;28;20241;-77
2023/06/12 08:24:30;;;;;;;9.33;4.80;;;;;;;;;;5093342;28;20200;-76
2023/06/12 08:26:58;;;;;;;7.40;5.10;;;;;;;;;;5103700;28;20203;-76
2023/06/12 08:29:25;;;;;;;8.87;5.20;;;;;;;;;;5113524;28;20345;-76
2023/06/12 08:31:52;;;;;;;7.73;4.57;;;;;;;;;;5102163;28;20267;-77
2023/06/12 08:34:20;;;;;;;5.53;4.93;;;;;;;;;;5092767;28;20204;-77
2023/06/12 08:36:47;;;;;;;6.07;5.23;;;;;;;;;;5105245;28;20238;-76
2023/06/12 08:39:14;;;;;;;6.40;4.17;;;;;;;;;;5094705;28;20208;-77
2023/06/12 08:41:48;;;;;;;4.60;4.17;;;;;;;;;;5092737;28;20234;-76
2023/06/12 08:44:16;;;;;;;6.00;4.30;;;;;;;;;;5113446;28;20203;-76
2023/06/12 08:46:43;;;;;;;4.50;4.10;;;;;;;;;;5099162;28;20200;-77
2023/06/12 08:49:12;;;;;;;6.63;4.43;;;;;;;;;;5106238;28;20235;-76
2023/06/12 08:51:41;;;;;;;4.37;3.70;;;;;;;;;;5093822;28;20287;-77
2023/06/12 08:54:08;;;;;;;6.03;4.27;;;;;;;;;;5104686;28;20253;-76
2023/06/12 08:56:35;;;;;;;5.57;4.87;;;;;;;;;;5094541;28;20204;-78
2023/06/12 08:59:03;;;;;;;6.27;4.50;;;;;;;;;;5104685;28;20197;-76
2023/06/12 09:01:32;;;;;;;5.17;4.43;;;;;;;;;;5106138;28;20231;-76
2023/06/12 09:04:01;;;;;;;4.87;4.27;;;;;;;;;;5092145;28;20641;-76
2023/06/12 09:06:30;;;;;;;6.47;4.67;;;;;;;;;;5095801;28;20248;-76
2023/06/12 09:08:57;;;;;;;4.93;4.53;;;;;;;;;;5102203;28;20211;-76
2023/06/12 09:11:24;;;;;;;6.53;5.23;;;;;;;;;;5106055;28;20192;-76
2023/06/12 09:13:51;;;;;;;12.00;4.10;;;;;;;;;;5103333;28;20635;-77
2023/06/12 09:16:18;;;;;;;5.13;4.47;;;;;;;;;;5097669;28;20212;-77
2023/06/12 09:18:50;;;;;;;4.83;4.43;;;;;;;;;;5112338;28;20206;-77
2023/06/12 09:21:17;;;;;;;5.17;4.20;;;;;;;;;;5112069;28;20247;-76
2023/06/12 09:23:45;;;;;;;4.50;3.83;;;;;;;;;;5101044;28;20679;-76
2023/06/12 09:26:15;;;;;;;4.70;4.30;;;;;;;;;;5105426;28;20291;-76
2023/06/12 09:28:43;;;;;;;7.07;3.73;;;;;;;;;;5103343;28;20696;-76
2023/06/12 09:31:10;;;;;;;4.47;4.07;;;;;;;;;;5107485;28;20304;-77
2023/06/12 09:33:39;;;;;;;5.30;4.47;;;;;;;;;;5103563;28;20196;-77
2023/06/12 09:36:07;;;;;;;5.13;4.33;;;;;;;;;;5106543;28;20203;-78
2023/06/12 09:38:35;;;;;;;4.83;3.60;;;;;;;;;;5104399;28;20200;-76
2023/06/12 09:41:04;;;;;;;4.57;4.03;;;;;;;;;;5098547;28;20223;-76
2023/06/12 09:43:31;;;;;;;4.97;4.13;;;;;;;;;;5098985;28;20204;-76
2023/06/12 09:45:58;;;;;;;6.43;4.13;;;;;;;;;;5105210;28;20196;-77
2023/06/12 09:48:26;;;;;;;6.73;5.13;;;;;;;;;;5091971;28;20228;-77
2023/06/12 09:50:53;;;;;;;4.93;4.53;;;;;;;;;;5104577;28;20216;-76
2023/06/12 09:53:22;;;;;;;4.53;4.13;;;;;;;;;;5091539;28;20207;-76
2023/06/12 09:55:50;;;;;;;5.43;4.93;;;;;;;;;;5091769;28;20208;-76
2023/06/12 09:58:19;;;;;;;4.37;3.97;;;;;;;;;;5093377;28;20693;-76
2023/06/12 10:00:46;;;;;;;8.97;4.60;;;;;;;;;;5102268;28;20220;-77
2023/06/12 10:03:15;;;;;;;4.90;4.50;;;;;;;;;;5091494;28;20200;-76
2023/06/12 10:05:43;;;;;;;6.73;3.70;;;;;;;;;;5101352;28;20576;-76
2023/06/12 10:08:11;;;;;;;6.07;5.47;;;;;;;;;;5094402;28;20250;-77
2023/06/12 10:10:40;;;;;;;8.17;4.70;;;;;;;;;;5091781;28;20241;-78
2023/06/12 10:13:07;;;;;;;6.17;4.37;;;;;;;;;;5095674;28;20204;-76
2023/06/12 10:15:34;;;;;;;6.80;6.10;;;;;;;;;;5101269;28;20200;-76
2023/06/12 10:18:02;;;;;;;5.53;4.77;;;;;;;;;;5108175;28;20206;-76
2023/06/12 10:20:30;;;;;;;4.77;4.17;;;;;;;;;;5111409;28;20203;-76
2023/06/12 10:22:58;;;;;;;9.60;5.10;;;;;;;;;;5097605;28;20202;-76
2023/06/12 10:25:25;;;;;;;7.87;5.17;;;;;;;;;;5100421;28;20204;-76
2023/06/12 10:27:54;;;;;;;5.37;4.80;;;;;;;;;;5090861;28;20744;-76
2023/06/12 10:30:21;;;;;;;5.53;5.03;;;;;;;;;;5103131;28;20282;-77
2023/06/12 10:32:47;;;;;;;5.40;4.80;;;;;;;;;;5105025;28;20747;-76
2023/06/12 10:35:30;;;;;;;4.60;4.20;;;;;;;;;;5103761;28;20256;-76
2023/06/12 10:37:56;;;;;;;6.83;4.47;;;;;;;;;;5103015;28;20578;-76
2023/06/12 10:40:24;;;;;;;7.40;4.53;;;;;;;;;;5104639;28;20249;-76
2023/06/12 10:43:05;;;;;;;4.93;4.43;;;;;;;;;;5098976;28;20223;-76
2023/06/12 10:45:33;;;;;;;5.13;4.63;;;;;;;;;;5097577;28;20749;-76
2023/06/12 10:48:17;;;;;;;4.67;4.20;;;;;;;;;;5110741;28;20227;-76
2023/06/12 10:50:45;;;;;;;4.53;4.17;;;;;;;;;;5109329;28;20264;-76
2023/06/12 10:53:13;;;;;;;4.43;4.07;;;;;;;;;;5097569;28;20571;-77
2023/06/12 10:55:41;;;;;;;4.73;4.23;;;;;;;;;;5103265;28;20689;-77
2023/06/12 10:58:12;;;;;;;5.57;4.13;;;;;;;;;;5105068;28;20202;-76
2023/06/12 11:00:45;;;;;;;5.83;4.37;;;;;;;;;;5102814;28;20232;-76
2023/06/12 11:03:14;;;;;;;5.23;4.10;;;;;;;;;;5104194;28;20282;-77
2023/06/12 11:05:46;;;;;;;4.30;4.00;;;;;;;;;;5100412;28;20200;-77
2023/06/12 11:08:13;;;;;;;6.00;4.10;;;;;;;;;;5096768;28;20199;-77
2023/06/12 11:10:40;;;;;;;5.90;3.50;;;;;;;;;;5111303;28;20196;-77
2023/06/12 11:13:06;;;;;;;3.37;3.07;;;;;;;;;;5107073;28;20196;-76
2023/06/12 11:15:42;;;;;;;3.90;3.23;;;;;;;;;;5091547;28;20272;-75
2023/06/12 11:18:09;;;;;;;7.13;3.70;;;;;;;;;;5090277;28;20286;-76
2023/06/12 11:20:36;;;;;;;3.97;3.67;;;;;;;;;;5103018;28;20640;-75
2023/06/12 11:23:06;;;;;;;3.27;3.00;;;;;;;;;;5096706;28;20219;-75
2023/06/12 11:25:33;;;;;;;5.33;3.23;;;;;;;;;;5098267;28;20219;-75
2023/06/12 11:28:00;;;;;;;3.50;3.20;;;;;;;;;;5096593;28;20287;-76
2023/06/12 11:30:27;;;;;;;3.20;2.80;;;;;;;;;;5110915;28;20199;-76
2023/06/12 11:32:55;;;;;;;5.27;3.60;;;;;;;;;;5090430;28;20197;-76
2023/06/12 11:35:21;;;;;;;5.03;3.27;;;;;;;;;;5090188;28;20250;-76
2023/06/12 11:37:48;;;;;;;3.70;3.40;;;;;;;;;;5104059;28;20613;-76
2023/06/12 11:40:15;;;;;;;4.40;3.97;;;;;;;;;;5104072;28;20203;-75
2023/06/12 11:42:43;;;;;;;3.40;3.10;;;;;;;;;;5096877;28;20724;-77
2023/06/12 11:45:11;;;;;;;3.60;3.23;;;;;;;;;;5111133;28;20196;-76
2023/06/12 11:47:38;;;;;;;4.93;3.63;;;;;;;;;;5101784;28;20235;-78
2023/06/12 11:50:09;;;;;;;10.37;3.07;;;;;;;;;;5100780;28;20638;-79
2023/06/12 11:52:42;;;;;;;5.07;2.93;;;;;;;;;;5105425;28;20686;-79
2023/06/12 11:55:10;;;;;;;7.07;3.40;;;;;;;;;;5107505;28;20199;-80
2023/06/12 12:00:42;;;;;;;6.80;2.90;;;;;;;;;;5105352;28;20196;-79
2023/06/12 12:03:09;;;;;;;9.30;4.50;;;;;;;;;;5107142;28;20227;-79
2023/06/12 12:05:40;;;;;;;13.33;4.00;;;;;;;;;;5093909;28;20201;-78
2023/06/12 12:08:07;;;;;;;5.20;2.70;;;;;;;;;;5107349;28;20643;-79
2023/06/12 12:10:40;;;;;;;1.60;1.50;;;;;;;;;;5093598;28;20200;-78
2023/06/12 12:13:07;;;;;;;1.60;1.50;;;;;;;;;;5093440;28;20254;-78
2023/06/12 12:15:36;;;;;;;2.10;1.90;;;;;;;;;;5094197;28;20209;-78
2023/06/12 12:18:03;;;;;;;4.37;1.73;;;;;;;;;;5096744;28;20196;-78
2023/06/12 12:20:30;;;;;;;3.30;2.27;;;;;;;;;;5114072;28;20200;-78
2023/06/12 12:23:02;;;;;;;3.90;2.43;;;;;;;;;;5100168;28;20219;-78
2023/06/12 12:25:31;;;;;;;4.03;2.53;;;;;;;;;;5101737;28;20262;-78
2023/06/12 12:27:59;;;;;;;6.70;3.10;;;;;;;;;;5106620;28;20682;-78
2023/06/12 12:30:27;;;;;;;5.17;3.00;;;;;;;;;;5106181;28;20256;-78
2023/06/12 12:32:55;;;;;;;6.37;2.97;;;;;;;;;;5093798;28;20208;-78
2023/06/12 12:35:22;;;;;;;4.33;3.30;;;;;;;;;;5106430;28;20204;-79
2023/06/12 12:37:50;;;;;;;4.57;3.00;;;;;;;;;;5113359;28;20196;-78
2023/06/12 12:40:19;;;;;;;7.70;4.30;;;;;;;;;;5099897;28;20200;-79
2023/06/12 12:42:47;;;;;;;3.00;2.80;;;;;;;;;;5093124;28;20220;-78
2023/06/12 12:45:16;;;;;;;3.80;3.37;;;;;;;;;;5106133;28;20207;-79
2023/06/12 12:47:44;;;;;;;5.87;3.43;;;;;;;;;;5100794;28;20343;-78
2023/06/12 12:50:14;;;;;;;4.93;3.60;;;;;;;;;;5112339;28;20199;-78
2023/06/12 12:52:40;;;;;;;3.33;3.00;;;;;;;;;;5101832;28;20203;-78
2023/06/12 12:55:08;;;;;;;3.93;3.10;;;;;;;;;;5099172;28;20201;-78
2023/06/12 12:57:38;;;;;;;3.43;3.17;;;;;;;;;;5104468;28;20629;-78
2023/06/12 13:00:08;;;;;;;2.60;2.40;;;;;;;;;;5108480;28;20227;-78
2023/06/12 13:02:35;;;;;;;4.17;3.77;;;;;;;;;;5103306;28;20243;-78
2023/06/12 13:05:02;;;;;;;3.43;3.13;;;;;;;;;;5106235;28;20670;-77
2023/06/12 13:07:31;;;;;;;2.97;2.40;;;;;;;;;;5102353;28;20196;-77
2023/06/12 13:09:58;;;;;;;3.43;3.13;;;;;;;;;;5099161;28;20202;-77
2023/06/12 13:12:25;;;;;;;3.37;3.07;;;;;;;;;;5102336;28;20716;-77
2023/06/12 13:14:53;;;;;;;4.23;3.00;;;;;;;;;;5105638;28;20204;-77
2023/06/12 13:17:20;;;;;;;4.37;3.20;;;;;;;;;;5092140;28;20196;-78
2023/06/12 13:19:46;;;;;;;2.70;2.50;;;;;;;;;;5106308;28;20204;-78
2023/06/12 13:22:13;;;;;;;6.67;4.23;;;;;;;;;;5092274;28;20577;-77
2023/06/12 13:24:40;;;;;;;4.80;3.03;;;;;;;;;;5097293;28;20670;-77
2023/06/12 13:27:07;;;;;;;3.70;2.97;;;;;;;;;;5100635;28;20201;-77
2023/06/12 13:29:34;;;;;;;3.97;2.70;;;;;;;;;;5091778;28;20667;-77
2023/06/12 13:32:03;;;;;;;3.13;2.77;;;;;;;;;;5105054;28;20207;-77
2023/06/12 13:34:30;;;;;;;3.30;2.70;;;;;;;;;;5092400;28;20200;-77
2023/06/12 13:36:57;;;;;;;2.90;2.70;;;;;;;;;;5091725;28;20200;-77
2023/06/12 13:39:24;;;;;;;3.90;2.57;;;;;;;;;;5091982;28;20316;-77
2023/06/12 13:41:52;;;;;;;3.27;2.40;;;;;;;;;;5105184;28;20230;-77
2023/06/12 13:44:19;;;;;;;2.53;2.33;;;;;;;;;;5112322;28;20614;-77
2023/06/12 13:46:46;;;;;;;2.43;2.30;;;;;;;;;;5097492;28;20262;-79
2023/06/12 13:49:14;;;;;;;3.00;2.80;;;;;;;;;;5099567;28;20304;-77
2023/06/12 13:51:42;;;;;;;2.30;2.20;;;;;;;;;;5098830;28;20212;-77
2023/06/12 13:54:09;;;;;;;2.80;2.60;;;;;;;;;;5112067;28;20677;-77
2023/06/12 13:56:36;;;;;;;2.70;2.50;;;;;;;;;;5109890;28;20264;-78
2023/06/12 13:59:03;;;;;;;3.93;2.80;;;;;;;;;;5100593;28;20619;-77
2023/06/12 14:01:32;;;;;;;6.90;4.43;;;;;;;;;;5111796;28;20203;-77
2023/06/12 14:04:00;;;;;;;3.17;2.97;;;;;;;;;;5103146;28;20577;-77
2023/06/12 14:06:31;;;;;;;3.03;2.80;;;;;;;;;;5091742;28;20204;-78
2023/06/12 14:08:57;;;;;;;3.60;3.10;;;;;;;;;;5091116;28;20265;-77
2023/06/12 14:11:24;;;;;;;3.30;2.60;;;;;;;;;;5094391;28;20627;-77
2023/06/12 14:13:51;;;;;;;3.30;3.00;;;;;;;;;;5111902;28;20248;-78
2023/06/12 14:16:20;;;;;;;2.90;2.70;;;;;;;;;;5111398;28;20286;-78
2023/06/12 14:18:47;;;;;;;3.67;2.70;;;;;;;;;;5101581;28;20567;-78
2023/06/12 14:21:14;;;;;;;3.33;3.03;;;;;;;;;;5104970;28;20261;-77
2023/06/12 14:23:44;;;;;;;3.13;2.93;;;;;;;;;;5097021;28;20219;-77
2023/06/12 14:26:11;;;;;;;3.70;3.07;;;;;;;;;;5108455;28;20196;-78
2023/06/12 14:28:38;;;;;;;6.13;2.97;;;;;;;;;;5087923;28;20208;-80
2023/06/12 14:31:05;;;;;;;3.57;3.27;;;;;;;;;;5090270;28;20253;-79
2023/06/12 14:33:31;;;;;;;3.70;3.20;;;;;;;;;;5109785;28;20191;-79
2023/06/12 14:35:58;;;;;;;3.47;3.17;;;;;;;;;;5111494;28;20320;-78
2023/06/12 14:38:25;;;;;;;3.60;3.30;;;;;;;;;;5110790;28;20211;-80
2023/06/12 14:40:56;;;;;;;2.90;2.70;;;;;;;;;;5098278;28;20200;-80
2023/06/12 14:43:23;;;;;;;5.73;3.20;;;;;;;;;;5090761;28;20230;-79
2023/06/12 14:45:49;;;;;;;4.77;3.43;;;;;;;;;;5090886;28;20204;-80
2023/06/12 14:48:19;;;;;;;5.37;3.30;;;;;;;;;;5110906;28;20227;-79
2023/06/12 14:50:47;;;;;;;3.73;3.43;;;;;;;;;;5096804;28;20203;-79